Time;durP1;ratioP1;P1;durP2;ratioP2;P2;SDS_P1;SDS_P2;PMS_P1;PMS_P2;Temp;Humidity;BMP_temperature;BMP_pressure;BME280_temperature;BME280_humidity;BME280_pressure;Samples;Min_cycle;Max_cycle;Signal;HPM_P1;HPM_P2
2023/03/17 00:01:18;;;;;;;5.73;1.73;;;;;;;5.36;62.96;101233.38;5036005;28;20445;-64
2023/03/17 00:03:48;;;;;;;8.50;2.33;;;;;;;5.28;62.32;101240.84;5035695;28;20478;-64
2023/03/17 00:06:17;;;;;;;6.60;2.00;;;;;;;5.25;62.89;101238.63;5036343;28;20787;-64
2023/03/17 00:08:46;;;;;;;9.93;2.10;;;;;;;5.21;63.53;101236.69;5035536;28;20494;-64
2023/03/17 00:11:13;;;;;;;7.00;2.37;;;;;;;5.27;64.15;101225.78;5035509;28;20903;-64
2023/03/17 00:13:40;;;;;;;8.10;2.10;;;;;;;5.29;63.87;101229.03;5035773;28;20872;-64
2023/03/17 00:16:13;;;;;;;5.63;1.97;;;;;;;5.37;64.23;101235.03;5035752;28;20439;-63
2023/03/17 00:18:39;;;;;;;6.63;2.40;;;;;;;5.42;63.21;101232.41;5035352;28;20514;-66
2023/03/17 00:21:06;;;;;;;8.33;2.03;;;;;;;5.49;62.94;101225.78;5035689;28;20475;-66
2023/03/17 00:23:34;;;;;;;7.73;1.73;;;;;;;5.48;62.72;101226.00;5035541;28;20465;-66
2023/03/17 00:26:02;;;;;;;7.80;2.37;;;;;;;5.47;62.13;101224.41;5035430;28;20470;-66
2023/03/17 00:28:29;;;;;;;7.03;2.17;;;;;;;5.42;63.33;101219.78;5035437;28;20459;-66
2023/03/17 00:30:59;;;;;;;10.60;1.80;;;;;;;5.44;63.27;101222.19;5035114;28;20525;-66
2023/03/17 00:33:31;;;;;;;6.10;2.10;;;;;;;5.39;63.99;101217.59;5035435;28;20439;-66
2023/03/17 00:35:58;;;;;;;6.10;1.77;;;;;;;5.41;63.27;101198.53;5035680;28;20431;-66
2023/03/17 00:38:26;;;;;;;7.20;2.17;;;;;;;5.38;64.36;101196.34;5035245;28;20482;-66
2023/03/17 00:40:54;;;;;;;8.70;2.20;;;;;;;5.38;63.87;101193.66;5034977;28;20458;-66
2023/03/17 00:43:22;;;;;;;6.57;2.40;;;;;;;5.40;63.28;101194.22;5035185;28;20442;-66
2023/03/17 00:45:49;;;;;;;6.83;2.17;;;;;;;5.40;63.10;101187.00;5035226;28;20482;-66
2023/03/17 00:48:19;;;;;;;8.67;2.30;;;;;;;5.36;64.14;101179.66;5035023;28;20443;-66
2023/03/17 00:50:47;;;;;;;6.60;2.50;;;;;;;5.37;63.02;101176.75;5034997;28;20490;-66
2023/03/17 00:53:16;;;;;;;7.30;1.93;;;;;;;5.41;64.32;101167.13;5034798;28;21039;-66
2023/03/17 00:55:44;;;;;;;8.90;2.47;;;;;;;5.38;64.39;101158.75;5034775;28;20963;-66
2023/03/17 00:58:15;;;;;;;7.20;2.10;;;;;;;5.36;63.62;101155.47;5036503;28;20538;-69
2023/03/17 01:00:42;;;;;;;7.70;2.43;;;;;;;5.27;63.19;101157.84;5034741;28;20423;-69
2023/03/17 01:03:11;;;;;;;9.07;2.80;;;;;;;5.25;63.61;101158.06;5034632;28;20451;-70
2023/03/17 01:05:39;;;;;;;10.80;2.63;;;;;;;5.34;63.73;101166.50;5034738;28;20522;-68
2023/03/17 01:08:06;;;;;;;8.60;2.70;;;;;;;5.35;63.00;101153.88;5034718;28;20443;-69
2023/03/17 01:10:33;;;;;;;14.00;3.30;;;;;;;5.35;62.70;101148.50;5034595;28;20479;-69
2023/03/17 01:13:00;;;;;;;11.60;2.77;;;;;;;5.28;63.26;101152.19;5034412;28;20526;-69
2023/03/17 01:15:30;;;;;;;7.87;2.43;;;;;;;5.18;63.66;101149.41;5034654;28;20471;-69
2023/03/17 01:17:58;;;;;;;9.87;2.93;;;;;;;5.21;64.39;101156.94;5034317;28;20814;-69
2023/03/17 01:20:28;;;;;;;10.17;2.90;;;;;;;5.28;63.62;101165.63;5034522;28;20458;-69
2023/03/17 01:22:55;;;;;;;6.87;2.60;;;;;;;5.30;64.17;101162.69;5034555;28;20526;-70
2023/03/17 01:25:22;;;;;;;11.03;2.83;;;;;;;5.35;63.70;101148.50;5034369;28;21031;-69
2023/03/17 01:27:49;;;;;;;9.80;2.77;;;;;;;5.35;63.80;101143.13;5034408;28;20534;-69
2023/03/17 01:30:26;;;;;;;7.50;2.60;;;;;;;5.43;63.24;101140.00;5034278;28;20501;-69
2023/03/17 01:32:53;;;;;;;8.13;2.27;;;;;;;5.42;63.33;101135.69;5034368;28;20431;-69
2023/03/17 01:35:21;;;;;;;7.30;2.70;;;;;;;5.45;62.94;101129.81;5034088;28;20949;-69
2023/03/17 01:37:49;;;;;;;6.13;2.30;;;;;;;5.47;63.04;101120.44;5033641;28;20436;-69
2023/03/17 01:40:18;;;;;;;7.80;2.67;;;;;;;5.45;62.61;101113.69;5034129;28;20525;-69
2023/03/17 01:42:49;;;;;;;7.57;2.90;;;;;;;5.46;62.90;101105.38;5034167;28;20443;-69
2023/03/17 01:45:53;;;;;;;9.97;2.40;;;;;;;5.41;62.12;101102.66;5034035;28;20996;-69
2023/03/17 01:48:20;;;;;;;7.90;2.87;;;;;;;5.35;63.05;101109.00;5033974;28;20860;-69
2023/03/17 01:50:49;;;;;;;8.57;2.97;;;;;;;5.39;64.03;101109.31;5033912;28;20494;-68
2023/03/17 01:53:18;;;;;;;9.40;2.70;;;;;;;5.38;63.75;101100.47;5033657;28;20940;-69
2023/03/17 01:55:45;;;;;;;10.87;3.27;;;;;;;5.38;63.73;101113.88;5033908;28;20490;-69
2023/03/17 01:58:15;;;;;;;7.90;2.63;;;;;;;5.40;63.16;101116.31;5033486;28;20807;-69
2023/03/17 02:00:42;;;;;;;11.13;3.80;;;;;;;5.30;62.74;101104.41;5033484;28;21039;-68
2023/03/17 02:03:10;;;;;;;8.20;2.93;;;;;;;5.38;63.01;101103.16;5033779;28;20447;-68
2023/03/17 02:05:38;;;;;;;6.90;2.50;;;;;;;5.31;62.91;101100.69;5033937;28;20547;-68
2023/03/17 02:08:11;;;;;;;10.40;2.93;;;;;;;5.27;63.42;101096.88;5033602;28;20445;-68
2023/03/17 02:10:38;;;;;;;7.33;3.07;;;;;;;5.29;62.76;101104.66;5033577;28;20475;-68
2023/03/17 02:13:06;;;;;;;7.20;2.53;;;;;;;5.24;63.72;101094.69;5033608;28;20516;-68
2023/03/17 02:15:37;;;;;;;8.27;3.30;;;;;;;5.21;63.65;101091.69;5033507;28;20474;-68
2023/03/17 02:18:05;;;;;;;9.90;2.60;;;;;;;5.20;64.08;101095.44;5033261;28;20471;-69
2023/03/17 02:21:19;;;;;;;6.87;2.50;;;;;;;5.15;64.35;101084.66;5033165;28;20474;-69
2023/03/17 02:23:47;;;;;;;8.60;2.43;;;;;;;5.17;64.62;101086.00;4953108;29;20446;-69
2023/03/17 02:26:14;;;;;;;10.87;3.50;;;;;;;5.19;63.35;101085.78;5024073;28;20539;-69
2023/03/17 02:28:44;;;;;;;8.27;2.83;;;;;;;5.22;63.99;101077.19;5033271;28;20550;-68
2023/03/17 02:31:11;;;;;;;10.63;3.27;;;;;;;5.27;64.36;101077.25;5033316;28;20569;-69
2023/03/17 02:33:38;;;;;;;7.70;2.87;;;;;;;5.30;64.72;101069.47;5033282;28;20533;-68
2023/03/17 02:36:05;;;;;;;10.70;3.27;;;;;;;5.35;63.93;101065.22;5033257;28;20534;-69
2023/03/17 02:38:31;;;;;;;13.60;3.17;;;;;;;5.25;64.86;101069.44;5033335;28;20471;-69
2023/03/17 02:41:00;;;;;;;8.73;3.00;;;;;;;5.26;64.25;101065.69;5033143;28;20538;-70
2023/03/17 02:43:26;;;;;;;7.30;3.10;;;;;;;5.30;64.33;101074.06;5033130;28;20470;-69
2023/03/17 02:45:53;;;;;;;7.80;2.63;;;;;;;5.29;64.49;101062.50;5033095;28;20487;-69
2023/03/17 02:48:21;;;;;;;7.80;3.23;;;;;;;5.30;65.18;101055.25;5032453;28;20976;-69
2023/03/17 02:50:48;;;;;;;7.50;2.93;;;;;;;5.32;64.07;101058.50;5032524;28;20487;-68
2023/03/17 02:53:14;;;;;;;7.37;2.90;;;;;;;5.40;64.26;101051.84;5033026;28;20439;-69
2023/03/17 02:55:42;;;;;;;9.60;3.13;;;;;;;5.39;64.31;101066.34;5032792;28;20535;-69
2023/03/17 02:58:10;;;;;;;8.47;3.27;;;;;;;5.35;64.33;101059.84;5032883;28;20454;-70
2023/03/17 03:00:37;;;;;;;8.13;2.93;;;;;;;5.34;63.83;101063.63;5033015;28;20447;-70
2023/03/17 03:03:04;;;;;;;7.90;2.73;;;;;;;5.41;62.90;101061.53;5032995;28;20819;-68
2023/03/17 03:05:30;;;;;;;9.07;2.63;;;;;;;5.43;63.87;101065.59;5032628;28;20453;-68
2023/03/17 03:07:57;;;;;;;9.10;2.77;;;;;;;5.42;64.06;101068.53;5032978;28;20477;-68
2023/03/17 03:10:24;;;;;;;9.93;3.60;;;;;;;5.33;63.68;101073.56;5032694;28;20502;-68
2023/03/17 03:12:50;;;;;;;10.27;2.87;;;;;;;5.22;63.70;101078.03;5032785;28;20959;-68
2023/03/17 03:15:19;;;;;;;6.80;2.33;;;;;;;5.19;64.42;101081.19;5032824;28;20471;-68
2023/03/17 03:17:46;;;;;;;10.70;3.27;;;;;;;5.13;63.88;101089.44;5032515;28;20530;-68
2023/03/17 03:20:13;;;;;;;9.47;2.97;;;;;;;5.12;64.79;101088.63;5032749;28;20836;-68
2023/03/17 03:22:40;;;;;;;7.63;2.90;;;;;;;5.19;63.68;101078.53;5032878;28;20449;-68
2023/03/17 03:25:07;;;;;;;7.80;2.50;;;;;;;5.15;64.67;101082.78;5032813;28;20489;-68
2023/03/17 03:27:34;;;;;;;6.60;2.40;;;;;;;5.16;64.26;101072.84;5032784;28;20431;-68
2023/03/17 03:30:01;;;;;;;7.27;2.90;;;;;;;5.15;64.64;101077.41;5032713;28;20463;-68
2023/03/17 03:32:30;;;;;;;10.23;3.03;;;;;;;5.02;64.13;101067.06;5032628;28;20483;-68
2023/03/17 03:34:56;;;;;;;10.90;3.40;;;;;;;5.02;63.78;101070.56;5032719;28;20501;-68
2023/03/17 03:37:23;;;;;;;8.53;2.93;;;;;;;5.04;64.94;101075.66;5032614;28;20478;-68
2023/03/17 03:39:50;;;;;;;12.07;3.50;;;;;;;5.09;64.83;101081.09;5032597;28;20473;-68
2023/03/17 03:42:16;;;;;;;7.70;2.53;;;;;;;5.18;64.18;101082.28;5032616;28;20439;-68
2023/03/17 03:44:43;;;;;;;9.40;2.97;;;;;;;5.23;64.71;101089.56;5032914;28;20443;-68
2023/03/17 03:47:10;;;;;;;11.03;3.00;;;;;;;5.28;63.89;101076.19;5032600;28;20441;-68
2023/03/17 03:49:38;;;;;;;8.10;3.00;;;;;;;5.28;63.89;101071.63;5032483;28;20554;-68
2023/03/17 03:52:05;;;;;;;11.33;3.20;;;;;;;5.27;64.56;101080.75;5032499;28;20566;-68
2023/03/17 03:54:32;;;;;;;8.27;2.60;;;;;;;5.28;64.60;101081.56;5032425;28;20451;-68
2023/03/17 03:56:59;;;;;;;9.80;3.00;;;;;;;5.30;63.67;101074.06;5032194;28;20479;-68
2023/03/17 03:59:25;;;;;;;7.97;2.50;;;;;;;5.33;63.47;101068.19;5032380;28;20509;-68
2023/03/17 04:01:52;;;;;;;14.43;3.10;;;;;;;5.33;63.54;101078.94;5035270;28;20443;-68
2023/03/17 04:04:18;;;;;;;11.53;2.80;;;;;;;5.30;63.93;101064.13;5035955;28;20449;-68
2023/03/17 04:06:46;;;;;;;9.13;3.00;;;;;;;5.29;63.01;101064.38;5035698;28;20443;-68
2023/03/17 04:09:13;;;;;;;9.27;2.97;;;;;;;5.27;64.06;101051.22;5035890;28;20467;-67
2023/03/17 04:11:40;;;;;;;8.57;2.90;;;;;;;5.25;63.49;101047.97;5035733;28;20999;-69
2023/03/17 04:14:07;;;;;;;12.87;3.00;;;;;;;5.24;63.40;101070.50;5035554;28;20864;-68
2023/03/17 04:16:34;;;;;;;14.20;3.77;;;;;;;5.25;63.02;101061.38;5035770;28;20443;-67
2023/03/17 04:19:00;;;;;;;10.23;2.87;;;;;;;5.24;63.72;101043.66;5035427;28;20499;-68
2023/03/17 04:21:27;;;;;;;9.07;3.00;;;;;;;5.20;62.57;101047.09;5035559;28;20824;-68
2023/03/17 04:23:55;;;;;;;10.33;2.67;;;;;;;5.07;63.21;101040.25;5035697;28;20457;-68
2023/03/17 04:26:21;;;;;;;13.03;2.77;;;;;;;5.09;63.59;101038.16;5035350;28;21028;-67
2023/03/17 04:28:48;;;;;;;9.60;3.23;;;;;;;5.04;63.94;101036.19;5035590;28;20561;-67
2023/03/17 04:31:15;;;;;;;13.40;3.00;;;;;;;5.02;63.34;101034.84;5035453;28;20487;-67
2023/03/17 04:33:42;;;;;;;9.73;3.63;;;;;;;5.03;63.76;101033.78;5035245;28;20963;-67
2023/03/17 04:36:15;;;;;;;7.37;2.97;;;;;;;4.95;63.33;101035.03;5035530;28;20477;-68
2023/03/17 04:38:41;;;;;;;10.03;3.40;;;;;;;4.97;64.14;101040.16;5035414;28;20459;-68
2023/03/17 04:41:09;;;;;;;8.27;3.20;;;;;;;4.93;63.41;101034.47;5035552;28;20443;-68
2023/03/17 04:43:36;;;;;;;15.53;3.20;;;;;;;4.95;63.85;101034.22;5035335;28;20454;-69
2023/03/17 04:46:03;;;;;;;9.97;2.60;;;;;;;4.94;63.54;101032.59;5035274;28;20447;-68
2023/03/17 04:48:30;;;;;;;8.60;3.27;;;;;;;4.89;64.43;101033.38;5034849;28;20495;-68
2023/03/17 04:50:57;;;;;;;8.83;2.70;;;;;;;4.92;64.36;101024.00;5035186;28;20451;-68
2023/03/17 04:53:24;;;;;;;9.17;3.00;;;;;;;5.01;63.65;101034.03;5034977;28;20470;-68
2023/03/17 04:55:50;;;;;;;9.50;3.40;;;;;;;5.07;63.59;101022.28;5035080;28;20461;-67
2023/03/17 04:58:18;;;;;;;9.93;1.90;;;;;;;5.06;63.78;101014.47;5035121;28;20450;-69
2023/03/17 05:00:45;;;;;;;10.60;3.23;;;;;;;5.07;64.98;101021.47;5035002;28;20867;-68
2023/03/17 05:03:12;;;;;;;11.53;2.50;;;;;;;5.11;64.30;101011.03;5034609;28;20450;-68
2023/03/17 05:05:38;;;;;;;8.43;2.70;;;;;;;5.19;63.98;101013.25;5034879;28;20439;-69
2023/03/17 05:08:05;;;;;;;10.00;2.53;;;;;;;5.14;64.47;100999.81;5034493;28;20443;-68
2023/03/17 05:10:32;;;;;;;8.17;2.77;;;;;;;5.14;63.42;101010.53;5034538;28;20918;-68
2023/03/17 05:12:59;;;;;;;9.03;2.50;;;;;;;5.18;62.47;101012.47;5033783;28;20855;-68
2023/03/17 05:15:27;;;;;;;7.60;2.97;;;;;;;5.21;62.83;101029.91;5034854;28;20497;-68
2023/03/17 05:17:54;;;;;;;11.00;2.43;;;;;;;5.16;63.25;101019.13;5034499;28;20479;-69
2023/03/17 05:20:20;;;;;;;8.10;2.40;;;;;;;5.15;63.12;101015.66;5034820;28;20553;-69
2023/03/17 05:22:47;;;;;;;9.40;3.50;;;;;;;5.10;63.32;101020.16;5034547;28;20497;-69
2023/03/17 05:25:13;;;;;;;8.40;2.70;;;;;;;5.12;63.70;101012.66;5034213;28;20824;-69
2023/03/17 05:27:40;;;;;;;8.60;2.60;;;;;;;5.16;64.70;101013.75;5034162;28;20945;-69
2023/03/17 05:30:08;;;;;;;8.33;2.90;;;;;;;5.23;62.76;100996.38;5034371;28;20463;-68
2023/03/17 05:32:36;;;;;;;6.70;2.27;;;;;;;5.24;61.90;101011.44;5034345;28;20562;-69
2023/03/17 05:35:03;;;;;;;6.50;2.23;;;;;;;5.21;62.16;101011.94;5034015;28;20443;-69
2023/03/17 05:37:30;;;;;;;11.37;3.20;;;;;;;5.21;62.21;101011.94;5033944;28;20497;-69
2023/03/17 05:39:56;;;;;;;5.97;1.90;;;;;;;5.17;62.50;101016.19;5033841;28;20462;-69
2023/03/17 05:42:23;;;;;;;8.50;2.40;;;;;;;5.19;61.16;101008.69;5034205;28;20435;-69
2023/03/17 05:44:50;;;;;;;10.07;3.10;;;;;;;5.15;61.48;101012.97;5034163;28;20493;-69
2023/03/17 05:47:16;;;;;;;11.47;3.10;;;;;;;5.19;61.77;101024.81;5034047;28;20439;-69
2023/03/17 05:49:44;;;;;;;8.07;2.80;;;;;;;5.19;61.29;101014.06;5033912;28;20909;-69
2023/03/17 05:52:11;;;;;;;8.90;2.90;;;;;;;5.14;61.44;101015.91;5033555;28;20494;-68
2023/03/17 05:54:38;;;;;;;6.63;1.97;;;;;;;5.21;61.11;101017.31;5033904;28;20529;-68
2023/03/17 05:57:04;;;;;;;7.23;2.10;;;;;;;5.22;60.87;101016.25;5033590;28;20447;-69
2023/03/17 05:59:32;;;;;;;12.23;2.77;;;;;;;5.23;60.89;101006.31;5033778;28;20510;-69
2023/03/17 06:01:58;;;;;;;9.77;3.50;;;;;;;5.27;61.05;101000.19;5033411;28;20494;-69
2023/03/17 06:04:25;;;;;;;9.77;2.70;;;;;;;5.29;60.86;100995.34;5033702;28;20816;-69
2023/03/17 06:06:53;;;;;;;7.43;2.40;;;;;;;5.38;61.11;101001.06;5033726;28;20565;-69
2023/03/17 06:09:19;;;;;;;9.17;2.13;;;;;;;5.39;61.28;101002.69;5033540;28;20463;-69
2023/03/17 06:11:46;;;;;;;6.10;2.27;;;;;;;5.49;61.13;100985.84;5033541;28;20617;-69
2023/03/17 06:14:13;;;;;;;9.10;2.80;;;;;;;5.46;61.12;100981.81;5033522;28;20443;-69
2023/03/17 06:16:40;;;;;;;9.10;2.30;;;;;;;5.56;59.98;100989.13;5033578;28;20451;-68
2023/03/17 06:19:06;;;;;;;7.17;2.20;;;;;;;5.62;59.65;100985.41;5033167;28;20875;-68
2023/03/17 06:21:33;;;;;;;8.67;2.97;;;;;;;5.67;59.42;100988.16;5033718;28;20485;-68
2023/03/17 06:24:01;;;;;;;11.63;2.70;;;;;;;5.69;59.64;100991.38;5033123;28;21029;-68
2023/03/17 06:26:28;;;;;;;19.23;3.27;;;;;;;5.72;59.42;100985.50;5033065;28;20550;-68
2023/03/17 06:28:54;;;;;;;8.40;2.97;;;;;;;5.69;58.61;100975.25;5033327;28;20562;-68
2023/03/17 06:31:22;;;;;;;7.87;3.03;;;;;;;5.70;58.87;100976.84;5033009;28;20447;-70
2023/03/17 06:33:49;;;;;;;10.73;2.63;;;;;;;5.71;59.40;100981.19;5033353;28;20493;-68
2023/03/17 06:36:16;;;;;;;9.17;3.47;;;;;;;5.71;58.96;100977.66;5033227;28;20519;-69
2023/03/17 06:38:42;;;;;;;8.77;3.20;;;;;;;5.74;58.67;100982.53;5033195;28;20463;-69
2023/03/17 06:41:10;;;;;;;7.00;2.40;;;;;;;5.66;57.54;100981.13;5033271;28;20550;-72
2023/03/17 06:43:37;;;;;;;7.53;2.60;;;;;;;5.72;58.46;100982.00;5033459;28;20443;-71
2023/03/17 06:46:04;;;;;;;15.37;3.37;;;;;;;5.81;58.12;100977.75;5033265;28;20474;-70
2023/03/17 06:48:31;;;;;;;7.47;2.43;;;;;;;5.89;57.06;100969.19;5033130;28;20503;-69
2023/03/17 06:50:57;;;;;;;7.90;2.67;;;;;;;5.87;57.17;100967.84;5033091;28;20443;-69
2023/03/17 06:53:24;;;;;;;12.93;3.00;;;;;;;5.91;57.55;100967.03;5032980;28;20478;-69
2023/03/17 06:55:51;;;;;;;8.90;2.90;;;;;;;5.97;57.06;100962.53;5032766;28;20454;-69
2023/03/17 06:58:19;;;;;;;8.83;3.10;;;;;;;6.06;56.61;100961.81;5032635;28;20538;-69
2023/03/17 07:00:47;;;;;;;8.73;3.00;;;;;;;6.12;56.50;100977.97;5034119;28;20451;-70
2023/03/17 07:03:14;;;;;;;9.70;2.30;;;;;;;6.11;56.06;100970.94;5032992;28;20492;-70
2023/03/17 07:05:41;;;;;;;9.30;2.53;;;;;;;6.12;56.76;100977.97;5032970;28;20443;-70
2023/03/17 07:08:08;;;;;;;9.50;2.70;;;;;;;6.02;56.96;100973.31;5032979;28;20443;-71
2023/03/17 07:10:35;;;;;;;9.20;3.47;;;;;;;5.96;57.43;100971.69;5032889;28;20522;-68
2023/03/17 07:13:02;;;;;;;17.97;4.03;;;;;;;5.93;57.29;100969.50;5032498;28;21065;-68
2023/03/17 07:15:33;;;;;;;13.07;3.77;;;;;;;6.05;57.24;100972.78;5032842;28;20501;-68
2023/03/17 07:18:00;;;;;;;9.50;2.80;;;;;;;6.12;56.64;100988.72;5032717;28;20470;-69
2023/03/17 07:20:27;;;;;;;12.80;3.00;;;;;;;6.24;56.89;100984.75;5032904;28;20474;-68
2023/03/17 07:22:53;;;;;;;9.53;2.77;;;;;;;6.43;56.63;100978.91;5032540;28;20450;-69
2023/03/17 07:25:21;;;;;;;11.93;2.60;;;;;;;6.52;57.15;100975.44;5032839;28;20445;-68
2023/03/17 07:27:47;;;;;;;10.47;3.50;;;;;;;6.55;55.14;100958.75;5032791;28;20451;-69
2023/03/17 07:30:17;;;;;;;7.70;2.70;;;;;;;6.70;55.04;100951.78;5032882;28;20470;-70
2023/03/17 07:32:46;;;;;;;8.63;2.20;;;;;;;6.77;54.91;100952.31;5032654;28;20518;-71
2023/03/17 07:35:14;;;;;;;8.20;3.00;;;;;;;6.76;55.07;100964.97;5033324;28;20450;-70
2023/03/17 07:37:40;;;;;;;8.80;2.80;;;;;;;6.80;54.76;100943.72;5036473;28;20500;-70
2023/03/17 07:40:09;;;;;;;8.87;3.00;;;;;;;6.92;54.70;100954.25;5036417;28;20550;-69
2023/03/17 07:42:35;;;;;;;8.83;2.63;;;;;;;7.01;53.49;100971.50;5036431;28;20500;-68
2023/03/17 07:45:04;;;;;;;7.60;2.40;;;;;;;6.94;54.00;100973.63;5036128;28;20445;-69
2023/03/17 07:47:31;;;;;;;7.27;2.30;;;;;;;6.84;53.36;100974.44;5036762;28;20447;-69
2023/03/17 07:49:59;;;;;;;7.67;2.37;;;;;;;6.83;53.31;100984.41;5036894;28;20498;-68
2023/03/17 07:52:26;;;;;;;8.87;2.23;;;;;;;6.89;54.05;100982.50;5036508;28;20529;-69
2023/03/17 07:54:53;;;;;;;8.87;2.90;;;;;;;6.94;54.03;100962.88;5036200;28;20481;-68
2023/03/17 07:57:20;;;;;;;11.10;2.60;;;;;;;7.00;54.12;100970.69;5036238;28;20838;-69
2023/03/17 07:59:47;;;;;;;6.70;2.57;;;;;;;7.08;54.00;100961.25;5035704;28;20987;-68
2023/03/17 08:02:15;;;;;;;7.13;2.53;;;;;;;7.12;54.38;100958.84;5035890;28;20813;-68
2023/03/17 08:04:42;;;;;;;10.80;3.00;;;;;;;7.19;53.89;100965.59;5036090;28;20439;-68
2023/03/17 08:07:11;;;;;;;10.43;2.67;;;;;;;7.26;53.29;100968.00;5036065;28;20451;-68
2023/03/17 08:09:38;;;;;;;6.90;2.00;;;;;;;7.25;53.04;100955.63;5035871;28;20467;-68
2023/03/17 08:12:07;;;;;;;8.20;2.07;;;;;;;7.31;53.51;100949.97;5035977;28;20431;-68
2023/03/17 08:14:34;;;;;;;7.27;2.30;;;;;;;7.31;53.55;100941.09;5035886;28;20822;-68
2023/03/17 08:17:01;;;;;;;10.53;2.30;;;;;;;7.47;53.09;100936.47;5035622;28;20458;-68
2023/03/17 08:19:28;;;;;;;8.70;2.33;;;;;;;7.63;51.56;100937.28;5035367;28;20988;-68
2023/03/17 08:21:54;;;;;;;12.93;1.67;;;;;;;7.73;52.24;100929.16;5035523;28;20964;-68
2023/03/17 08:24:22;;;;;;;7.33;2.40;;;;;;;7.79;51.56;100926.19;5035884;28;20438;-68
2023/03/17 08:26:49;;;;;;;7.17;2.20;;;;;;;7.94;52.44;100913.72;5035607;28;20501;-68
2023/03/17 08:29:16;;;;;;;6.97;1.97;;;;;;;7.97;51.44;100930.19;5035634;28;20555;-68
2023/03/17 08:31:42;;;;;;;6.67;2.17;;;;;;;8.15;50.58;100926.06;5035653;28;20973;-68
2023/03/17 08:34:09;;;;;;;5.90;1.80;;;;;;;8.30;50.96;100925.97;5035604;28;20907;-68
2023/03/17 08:36:35;;;;;;;6.13;2.10;;;;;;;8.48;51.15;100931.88;5035691;28;20490;-68
2023/03/17 08:39:03;;;;;;;7.20;2.00;;;;;;;8.57;49.82;100935.59;5035528;28;20493;-68
2023/03/17 08:41:31;;;;;;;8.53;2.67;;;;;;;8.53;50.75;100929.94;5035429;28;20450;-67
2023/03/17 08:43:58;;;;;;;7.00;2.07;;;;;;;8.64;50.09;100917.19;5035146;28;20479;-67
2023/03/17 08:46:27;;;;;;;8.00;2.10;;;;;;;8.80;48.78;100915.19;5035311;28;20439;-69
2023/03/17 08:48:56;;;;;;;7.07;2.47;;;;;;;8.87;49.89;100914.91;5035123;28;20906;-69
2023/03/17 08:51:24;;;;;;;6.50;1.87;;;;;;;9.00;49.03;100901.53;5035330;28;20530;-68
2023/03/17 08:53:51;;;;;;;5.60;1.70;;;;;;;9.03;49.75;100894.75;5035164;28;20483;-70
2023/03/17 08:56:17;;;;;;;6.40;2.70;;;;;;;9.10;49.60;100903.34;5035102;28;20439;-70
2023/03/17 08:58:46;;;;;;;6.87;2.17;;;;;;;9.15;48.78;100905.19;5035018;28;20469;-70
2023/03/17 09:01:14;;;;;;;8.10;1.87;;;;;;;9.25;48.26;100903.25;5034977;28;20530;-70
2023/03/17 09:03:41;;;;;;;6.57;2.13;;;;;;;9.25;48.15;100895.13;5035074;28;20517;-68
2023/03/17 09:06:10;;;;;;;6.40;1.80;;;;;;;9.17;48.43;100895.75;5034895;28;20496;-70
2023/03/17 09:08:38;;;;;;;9.73;2.93;;;;;;;9.26;48.75;100879.72;5034970;28;20467;-69
2023/03/17 09:11:05;;;;;;;8.23;2.47;;;;;;;9.29;48.40;100896.16;5034860;28;20862;-69
2023/03/17 09:13:32;;;;;;;8.57;2.00;;;;;;;9.45;48.08;100880.59;5034683;28;20570;-69
2023/03/17 09:16:01;;;;;;;7.33;2.20;;;;;;;9.68;47.06;100886.31;5034927;28;20439;-69
2023/03/17 09:18:30;;;;;;;11.00;2.67;;;;;;;9.84;47.25;100888.56;5034319;28;20561;-67
2023/03/17 09:20:56;;;;;;;8.70;3.10;;;;;;;9.77;47.15;100887.28;5034947;28;20473;-69
2023/03/17 09:23:23;;;;;;;8.53;2.13;;;;;;;9.79;46.13;100891.31;5034338;28;20486;-68
2023/03/17 09:25:50;;;;;;;7.07;1.90;;;;;;;9.94;46.24;100894.94;5034631;28;20900;-68
2023/03/17 09:28:17;;;;;;;9.63;2.90;;;;;;;10.06;44.97;100887.22;5034460;28;20475;-69
2023/03/17 09:30:44;;;;;;;7.97;2.63;;;;;;;10.13;44.36;100892.25;5034394;28;20451;-68
2023/03/17 09:33:14;;;;;;;7.60;1.97;;;;;;;10.15;45.71;100888.19;5034051;28;20482;-68
2023/03/17 09:35:41;;;;;;;10.87;2.37;;;;;;;10.30;45.29;100892.63;5034340;28;20486;-69
2023/03/17 09:38:08;;;;;;;10.10;2.50;;;;;;;10.41;45.56;100891.41;5034140;28;20446;-68
2023/03/17 09:40:43;;;;;;;10.13;2.80;;;;;;;10.45;45.79;100891.63;5034137;28;20449;-68
2023/03/17 09:43:21;;;;;;;8.40;2.27;;;;;;;10.56;45.24;100893.06;5033930;28;20431;-68
2023/03/17 09:45:47;;;;;;;8.17;2.00;;;;;;;10.74;44.81;100884.13;5034190;28;20851;-69
2023/03/17 09:48:28;;;;;;;6.70;1.57;;;;;;;10.88;44.52;100891.50;5034042;28;20485;-69
2023/03/17 09:50:58;;;;;;;8.50;2.33;;;;;;;10.96;45.21;100890.84;5034034;28;20794;-68
2023/03/17 09:53:32;;;;;;;6.43;1.77;;;;;;;11.08;44.88;100883.84;5034068;28;20486;-67
2023/03/17 09:56:02;;;;;;;10.80;2.50;;;;;;;11.17;44.61;100894.81;5033924;28;20486;-69
2023/03/17 09:58:32;;;;;;;8.80;2.20;;;;;;;11.19;44.67;100886.38;5033341;28;20463;-70
2023/03/17 10:00:59;;;;;;;8.23;1.90;;;;;;;11.36;45.23;100879.28;5033910;28;20442;-70
2023/03/17 10:03:27;;;;;;;7.27;2.40;;;;;;;11.52;44.60;100881.75;5033475;28;20529;-69
2023/03/17 10:06:07;;;;;;;5.73;1.93;;;;;;;11.68;44.02;100883.03;5033719;28;20449;-70
2023/03/17 10:08:51;;;;;;;6.80;2.07;;;;;;;11.78;43.95;100890.19;5033227;28;20463;-71
2023/03/17 10:11:27;;;;;;;8.93;2.30;;;;;;;11.92;42.73;100891.03;5033597;28;20509;-71
2023/03/17 10:13:59;;;;;;;7.87;2.20;;;;;;;12.08;42.57;100878.72;5033230;28;20565;-70
2023/03/17 10:16:34;;;;;;;8.43;2.70;;;;;;;12.26;41.96;100887.03;5033452;28;20431;-68
2023/03/17 10:19:12;;;;;;;11.40;2.53;;;;;;;12.27;42.48;100883.25;5033200;28;20563;-69
2023/03/17 10:21:48;;;;;;;7.60;2.43;;;;;;;12.19;42.37;100884.75;5033743;28;20430;-69
2023/03/17 10:24:15;;;;;;;9.23;2.47;;;;;;;12.06;40.73;100880.94;5033199;28;20904;-69
2023/03/17 10:26:46;;;;;;;7.07;2.40;;;;;;;12.03;42.46;100886.97;5033425;28;20439;-70
2023/03/17 10:29:16;;;;;;;6.93;2.00;;;;;;;12.20;41.59;100874.69;5033060;28;20491;-69
2023/03/17 10:31:43;;;;;;;8.07;2.60;;;;;;;12.40;42.09;100878.91;5033442;28;20458;-69
2023/03/17 10:34:16;;;;;;;6.80;2.00;;;;;;;12.60;40.90;100883.84;5033800;28;20483;-73
2023/03/17 10:36:46;;;;;;;8.17;2.00;;;;;;;12.71;40.45;100874.38;5033761;28;20441;-69
2023/03/17 10:39:14;;;;;;;6.57;1.80;;;;;;;12.74;41.66;100870.22;5033392;28;20459;-69
2023/03/17 10:41:51;;;;;;;10.37;2.17;;;;;;;12.75;40.88;100860.94;5033237;28;20493;-69
2023/03/17 10:44:23;;;;;;;11.00;1.90;;;;;;;12.90;41.98;100865.22;5033000;28;20412;-69
2023/03/17 10:46:54;;;;;;;7.40;2.20;;;;;;;12.99;41.31;100860.63;5033414;28;20442;-69
2023/03/17 10:49:24;;;;;;;7.03;2.27;;;;;;;13.17;40.34;100865.06;5033159;28;20490;-69
2023/03/17 10:51:52;;;;;;;6.07;2.00;;;;;;;13.23;41.52;100855.69;5033474;28;20516;-69
2023/03/17 10:54:20;;;;;;;11.77;2.63;;;;;;;13.18;39.38;100863.16;5033057;28;20890;-70
2023/03/17 10:56:50;;;;;;;6.63;1.80;;;;;;;13.11;39.43;100853.53;5033242;28;20443;-69
2023/03/17 10:59:19;;;;;;;9.73;2.83;;;;;;;13.19;39.22;100859.31;5033076;28;20455;-70
2023/03/17 11:01:52;;;;;;;8.80;2.33;;;;;;;13.27;39.82;100843.06;5033090;28;20435;-69
2023/03/17 11:04:27;;;;;;;5.90;1.73;;;;;;;13.36;40.63;100851.25;5033035;28;20426;-69
2023/03/17 11:06:57;;;;;;;5.60;2.00;;;;;;;13.51;41.44;100848.16;5033068;28;20513;-69
2023/03/17 11:09:25;;;;;;;6.27;2.00;;;;;;;13.60;40.69;100845.47;5032904;28;20470;-69
2023/03/17 11:12:01;;;;;;;7.17;2.43;;;;;;;13.69;40.25;100843.56;5036156;28;20454;-70
2023/03/17 11:14:28;;;;;;;7.53;2.00;;;;;;;13.62;40.49;100845.94;5036628;28;20474;-70
2023/03/17 11:16:56;;;;;;;8.77;2.90;;;;;;;13.76;40.89;100841.16;5036984;28;20449;-70
2023/03/17 11:19:34;;;;;;;10.43;2.20;;;;;;;14.01;39.54;100836.13;5036499;28;20570;-70
2023/03/17 11:22:08;;;;;;;5.90;1.90;;;;;;;14.18;38.96;100832.63;5036680;28;20912;-69
2023/03/17 11:24:41;;;;;;;8.70;2.53;;;;;;;14.48;38.38;100828.16;5036810;28;20453;-69
2023/03/17 11:27:16;;;;;;;6.57;2.17;;;;;;;14.78;37.99;100823.63;5036841;28;20856;-69
2023/03/17 11:30:00;;;;;;;8.67;2.60;;;;;;;15.16;38.30;100822.94;5036826;28;20472;-70
2023/03/17 11:32:35;;;;;;;8.03;2.30;;;;;;;15.80;37.43;100822.81;5036619;28;20438;-70
2023/03/17 11:35:30;;;;;;;7.60;2.10;;;;;;;16.56;35.67;100840.94;5036253;28;20998;-70